createdAt,value
2018-05-27T00:02:10.045Z,6.80
2018-05-27T00:04:37.805Z,6.60
2018-05-27T00:07:05.271Z,6.80
2018-05-27T00:09:32.738Z,6.30
2018-05-27T00:12:00.463Z,6.07
2018-05-27T00:14:27.935Z,6.17
2018-05-27T00:16:55.428Z,5.90
2018-05-27T00:19:23.119Z,6.10
2018-05-27T00:21:50.584Z,6.40
2018-05-27T00:24:18.056Z,6.20
2018-05-27T00:26:45.547Z,6.27
2018-05-27T00:29:13.006Z,6.53
2018-05-27T00:31:40.776Z,6.37
2018-05-27T00:34:08.538Z,7.00
2018-05-27T00:36:36.031Z,6.40
2018-05-27T00:39:03.506Z,6.80
2018-05-27T00:41:30.974Z,6.97
2018-05-27T00:43:58.446Z,5.80
2018-05-27T00:46:26.134Z,6.97
2018-05-27T00:48:53.908Z,6.93
2018-05-27T00:51:21.371Z,6.70
2018-05-27T00:53:59.720Z,6.40
2018-05-27T00:56:27.213Z,7.87
2018-05-27T00:58:54.666Z,6.60
2018-05-27T01:01:22.138Z,6.93
2018-05-27T01:03:49.607Z,7.17
2018-05-27T01:06:17.166Z,6.43
2018-05-27T01:08:44.625Z,6.27
2018-05-27T01:11:12.135Z,6.60
2018-05-27T01:13:39.775Z,7.60
2018-05-27T01:16:07.251Z,7.50
2018-05-27T01:18:34.770Z,7.40
2018-05-27T01:21:02.251Z,7.27
2018-05-27T01:23:29.970Z,7.67
2018-05-27T01:25:57.439Z,7.30
2018-05-27T01:28:25.216Z,7.40
2018-05-27T01:30:52.920Z,6.93
2018-05-27T01:33:20.393Z,7.20
2018-05-27T01:35:47.854Z,6.60
2018-05-27T01:38:15.354Z,6.90
2018-05-27T01:40:42.823Z,7.80
2018-05-27T01:43:10.503Z,8.00
2018-05-27T01:45:37.984Z,7.73
2018-05-27T01:48:05.462Z,8.00
2018-05-27T01:50:32.937Z,7.00
2018-05-27T01:53:00.406Z,6.70
2018-05-27T01:55:27.858Z,8.07
2018-05-27T01:57:55.327Z,7.00
2018-05-27T02:00:22.806Z,8.00
2018-05-27T02:02:50.488Z,7.80
2018-05-27T02:05:17.970Z,7.37
2018-05-27T02:07:45.539Z,6.77
2018-05-27T02:10:13.158Z,7.13
2018-05-27T02:12:40.690Z,7.63
2018-05-27T02:15:08.179Z,7.27
2018-05-27T02:17:35.914Z,6.87
2018-05-27T02:20:03.448Z,7.37
2018-05-27T02:22:31.128Z,7.00
2018-05-27T02:24:58.586Z,7.47
2018-05-27T02:27:26.075Z,7.97
2018-05-27T02:29:53.555Z,7.17
2018-05-27T02:32:21.060Z,7.67
2018-05-27T02:34:48.538Z,7.90
2018-05-27T02:37:16.783Z,7.60
2018-05-27T02:39:44.272Z,7.53
2018-05-27T02:42:11.760Z,8.00
2018-05-27T02:44:39.228Z,6.97
2018-05-27T02:47:06.871Z,8.30
2018-05-27T02:49:34.406Z,7.50
2018-05-27T02:52:01.870Z,7.30
2018-05-27T02:54:29.620Z,7.10
2018-05-27T02:56:58.622Z,8.07
2018-05-27T02:59:26.079Z,7.50
2018-05-27T03:01:53.570Z,6.87
2018-05-27T03:04:21.054Z,7.40
2018-05-27T03:06:48.524Z,7.27
2018-05-27T03:09:15.986Z,7.30
2018-05-27T03:11:43.467Z,8.00
2018-05-27T03:14:10.948Z,6.50
2018-05-27T03:16:39.204Z,7.50
2018-05-27T03:19:06.702Z,7.93
2018-05-27T03:21:34.231Z,7.33
2018-05-27T03:24:01.703Z,7.80
2018-05-27T03:26:29.976Z,7.17
2018-05-27T03:28:57.681Z,6.90
2018-05-27T03:31:25.220Z,7.97
2018-05-27T03:33:52.955Z,7.40
2018-05-27T03:36:20.471Z,7.50
2018-05-27T03:38:47.938Z,7.13
2018-05-27T03:41:15.427Z,7.70
2018-05-27T03:43:42.880Z,7.13
2018-05-27T03:46:10.345Z,7.17
2018-05-27T03:48:37.802Z,7.27
2018-05-27T03:51:05.267Z,7.10
2018-05-27T03:53:33.517Z,6.70
2018-05-27T03:56:00.992Z,6.10
2018-05-27T03:58:28.461Z,6.63
2018-05-27T04:00:56.039Z,6.23
2018-05-27T04:03:24.289Z,6.90
2018-05-27T04:06:03.692Z,7.03
2018-05-27T04:08:35.666Z,6.50
2018-05-27T04:11:03.130Z,7.20
2018-05-27T04:13:30.720Z,6.70
2018-05-27T04:15:58.259Z,7.10
2018-05-27T04:18:25.807Z,6.77
2018-05-27T04:20:53.298Z,6.30
2018-05-27T04:23:20.799Z,6.07
2018-05-27T04:25:48.328Z,6.63
2018-05-27T04:28:15.835Z,5.83
2018-05-27T04:30:43.285Z,5.87
2018-05-27T04:33:10.780Z,7.43
2018-05-27T04:35:38.383Z,6.80
2018-05-27T04:38:05.854Z,6.27
2018-05-27T04:40:33.332Z,6.87
2018-05-27T04:43:00.794Z,6.13
2018-05-27T04:45:28.318Z,6.37
2018-05-27T04:47:55.991Z,6.80
2018-05-27T04:50:23.527Z,6.60
2018-05-27T04:52:51.138Z,6.07
2018-05-27T04:55:18.894Z,6.23
2018-05-27T04:57:46.508Z,6.67
2018-05-27T05:00:13.962Z,6.20
2018-05-27T05:02:41.560Z,6.60
2018-05-27T05:05:09.040Z,5.90
2018-05-27T05:07:36.571Z,7.73
2018-05-27T05:10:04.087Z,7.30
2018-05-27T05:12:31.549Z,6.50
2018-05-27T05:14:59.116Z,6.53
2018-05-27T05:17:26.568Z,7.30
2018-05-27T05:19:54.106Z,7.90
2018-05-27T05:22:21.700Z,6.00
2018-05-27T05:24:49.166Z,6.40
2018-05-27T05:27:16.654Z,7.90
2018-05-27T05:29:44.114Z,7.10
2018-05-27T05:32:11.594Z,7.50
2018-05-27T05:34:39.054Z,6.97
2018-05-27T05:37:06.730Z,6.67
2018-05-27T05:39:35.722Z,7.03
2018-05-27T05:42:03.194Z,6.93
2018-05-27T05:44:30.726Z,7.17
2018-05-27T05:46:58.325Z,6.70
2018-05-27T05:49:25.788Z,7.90
2018-05-27T05:51:53.322Z,7.10
2018-05-27T05:54:20.791Z,7.40
2018-05-27T05:56:48.552Z,8.03
2018-05-27T05:59:16.047Z,6.80
2018-05-27T06:01:43.533Z,6.60
2018-05-27T06:04:11.227Z,7.43
2018-05-27T06:06:40.211Z,7.00
2018-05-27T06:09:07.675Z,7.90
2018-05-27T06:11:35.159Z,9.43
2018-05-27T06:14:02.848Z,7.13
2018-05-27T06:16:30.319Z,7.00
2018-05-27T06:18:57.791Z,7.40
2018-05-27T06:21:25.246Z,6.53
2018-05-27T06:23:52.730Z,7.67
2018-05-27T06:26:20.183Z,6.10
2018-05-27T06:28:47.642Z,6.57
2018-05-27T06:31:15.116Z,7.03
2018-05-27T06:33:42.644Z,7.67
2018-05-27T06:36:10.246Z,6.90
2018-05-27T06:38:37.922Z,7.80
2018-05-27T06:41:06.173Z,7.40
2018-05-27T06:43:33.943Z,6.20
2018-05-27T06:46:01.699Z,7.13
2018-05-27T06:48:29.166Z,6.97
2018-05-27T06:50:56.752Z,6.83
2018-05-27T06:53:25.302Z,7.40
2018-05-27T06:55:52.758Z,8.10
2018-05-27T06:58:20.218Z,8.90
2018-05-27T07:00:47.683Z,7.47
2018-05-27T07:03:15.141Z,6.47
2018-05-27T07:05:42.649Z,8.07
2018-05-27T07:08:10.278Z,6.50
2018-05-27T07:10:37.829Z,7.17
2018-05-27T07:13:06.803Z,6.90
2018-05-27T07:15:34.270Z,7.47
2018-05-27T07:18:01.739Z,6.83
2018-05-27T07:20:29.804Z,7.53
2018-05-27T07:22:57.264Z,7.80
2018-05-27T07:25:24.725Z,7.00
2018-05-27T07:27:52.836Z,8.13
2018-05-27T07:30:20.471Z,6.73
2018-05-27T07:32:48.021Z,7.33
2018-05-27T07:35:15.496Z,6.70
2018-05-27T07:37:42.955Z,6.93
2018-05-27T07:40:10.607Z,6.63
2018-05-27T07:42:38.307Z,6.40
2018-05-27T07:45:05.777Z,6.70
2018-05-27T07:47:33.242Z,6.80
2018-05-27T07:50:00.706Z,6.90
2018-05-27T07:52:28.297Z,7.37
2018-05-27T07:54:55.731Z,6.73
2018-05-27T07:57:23.213Z,7.80
2018-05-27T07:59:50.974Z,6.30
2018-05-27T08:02:18.751Z,6.70
2018-05-27T08:04:46.206Z,5.87
2018-05-27T08:07:13.739Z,6.13
2018-05-27T08:09:41.146Z,5.60
2018-05-27T08:12:08.800Z,5.80
2018-05-27T08:14:36.250Z,6.17
2018-05-27T08:17:03.724Z,7.07
2018-05-27T08:19:31.193Z,5.80
2018-05-27T08:21:58.651Z,7.10
2018-05-27T08:24:26.113Z,6.50
2018-05-27T08:26:53.582Z,6.07
2018-05-27T08:29:21.090Z,5.87
2018-05-27T08:31:48.848Z,6.23
2018-05-27T08:34:16.310Z,5.93
2018-05-27T08:36:43.990Z,5.60
2018-05-27T08:39:11.534Z,5.20
2018-05-27T08:41:38.997Z,5.60
2018-05-27T08:44:06.459Z,5.47
2018-05-27T08:46:34.218Z,5.70
2018-05-27T08:49:02.019Z,5.57
2018-05-27T08:51:29.769Z,5.50
2018-05-27T08:53:57.506Z,5.73
2018-05-27T08:56:25.296Z,5.50
2018-05-27T08:58:53.634Z,5.30
2018-05-27T09:01:21.223Z,84.57
2018-05-27T09:03:48.903Z,14.50
2018-05-27T09:06:16.350Z,5.47
2018-05-27T09:08:44.101Z,26.93
2018-05-27T09:11:11.571Z,12.50
2018-05-27T09:13:39.330Z,40.30
2018-05-27T09:16:06.786Z,4.67
2018-05-27T09:18:34.270Z,5.40
2018-05-27T09:21:02.013Z,5.13
2018-05-27T09:23:29.472Z,4.60
2018-05-27T09:25:57.229Z,4.70
2018-05-27T09:28:24.691Z,5.27
2018-05-27T09:30:52.521Z,5.13
2018-05-27T09:33:20.228Z,5.40
2018-05-27T09:35:48.510Z,5.00
2018-05-27T09:38:15.988Z,5.17
2018-05-27T09:40:43.452Z,4.30
2018-05-27T09:43:10.927Z,5.27
2018-05-27T09:45:38.435Z,4.93
2018-05-27T09:48:06.271Z,6.40
2018-05-27T09:50:33.760Z,5.40
2018-05-27T09:53:01.254Z,5.03
2018-05-27T09:55:28.703Z,5.13
2018-05-27T09:57:56.319Z,4.77
2018-05-27T10:00:23.913Z,32.67
2018-05-27T10:02:52.217Z,4.80
2018-05-27T10:05:20.092Z,5.33
2018-05-27T10:07:47.886Z,4.77
2018-05-27T10:10:15.445Z,5.43
2018-05-27T10:12:43.020Z,4.97
2018-05-27T10:15:10.524Z,4.80
2018-05-27T10:17:38.092Z,5.10
2018-05-27T10:20:05.764Z,5.03
2018-05-27T10:22:33.332Z,37.13
2018-05-27T10:25:00.838Z,5.03
2018-05-27T10:27:28.366Z,4.60
2018-05-27T10:29:55.894Z,4.53
2018-05-27T10:32:23.557Z,4.60
2018-05-27T10:34:51.040Z,4.00
2018-05-27T10:37:18.543Z,4.40
2018-05-27T10:39:46.819Z,4.40
2018-05-27T10:42:14.310Z,4.50
2018-05-27T10:44:42.040Z,3.90
2018-05-27T10:47:09.570Z,3.63
2018-05-27T10:49:37.118Z,4.10
2018-05-27T10:52:04.630Z,4.20
2018-05-27T10:54:32.947Z,3.73
2018-05-27T10:57:00.493Z,4.00
2018-05-27T10:59:28.025Z,4.50
2018-05-27T11:01:55.585Z,4.20
2018-05-27T11:04:23.964Z,4.20
2018-05-27T11:06:52.280Z,4.20
2018-05-27T11:09:19.843Z,4.00
2018-05-27T11:11:47.481Z,3.90
2018-05-27T11:14:15.081Z,4.50
2018-05-27T11:16:42.751Z,5.03
2018-05-27T11:19:10.295Z,3.97
2018-05-27T11:21:38.049Z,4.27
2018-05-27T11:24:05.681Z,4.50
2018-05-27T11:26:33.369Z,4.67
2018-05-27T11:29:00.893Z,4.50
2018-05-27T11:31:28.407Z,5.00
2018-05-27T11:33:55.992Z,4.70
2018-05-27T11:36:23.573Z,4.53
2018-05-27T11:38:51.232Z,5.43
2018-05-27T11:41:18.912Z,4.80
2018-05-27T11:43:46.522Z,4.97
2018-05-27T11:46:14.240Z,4.87
2018-05-27T11:48:41.920Z,5.07
2018-05-27T11:51:09.591Z,4.30
2018-05-27T11:53:37.204Z,4.80
2018-05-27T11:56:04.803Z,5.00
2018-05-27T11:58:32.361Z,4.90
2018-05-27T12:01:00.595Z,4.93
2018-05-27T12:03:28.130Z,5.20
2018-05-27T12:05:55.637Z,4.77
2018-05-27T12:08:23.414Z,5.23
2018-05-27T12:10:51.751Z,4.77
2018-05-27T12:13:19.277Z,5.60
2018-05-27T12:15:46.894Z,4.90
2018-05-27T12:18:14.450Z,5.47
2018-05-27T12:20:41.952Z,5.47
2018-05-27T12:23:09.621Z,5.67
2018-05-27T12:25:37.435Z,4.70
2018-05-27T12:28:04.934Z,5.27
2018-05-27T12:30:32.638Z,4.90
2018-05-27T12:33:00.296Z,4.90
2018-05-27T12:35:27.897Z,5.40
2018-05-27T12:37:55.474Z,4.80
2018-05-27T12:40:23.080Z,4.60
2018-05-27T12:42:50.644Z,4.77
2018-05-27T12:45:18.236Z,4.40
2018-05-27T12:47:45.859Z,5.40
2018-05-27T12:50:13.381Z,5.33
2018-05-27T12:52:41.012Z,4.50
2018-05-27T12:55:08.576Z,4.90
2018-05-27T12:57:36.811Z,5.07
2018-05-27T13:00:04.274Z,5.30
2018-05-27T13:02:31.968Z,5.07
2018-05-27T13:04:59.734Z,5.53
2018-05-27T13:07:27.418Z,5.05
2018-05-27T13:09:55.644Z,4.60
2018-05-27T13:12:23.342Z,6.70
2018-05-27T13:14:50.841Z,5.93
2018-05-27T13:17:18.560Z,5.30
2018-05-27T13:19:46.054Z,4.83
2018-05-27T13:22:13.784Z,5.10
2018-05-27T13:24:41.247Z,5.10
2018-05-27T13:27:08.719Z,5.77
2018-05-27T13:29:36.190Z,6.03
2018-05-27T13:32:03.851Z,6.00
2018-05-27T13:34:31.390Z,6.40
2018-05-27T13:36:59.151Z,5.63
2018-05-27T13:39:26.915Z,5.10
2018-05-27T13:41:54.379Z,5.00
2018-05-27T13:44:21.851Z,4.80
2018-05-27T13:46:49.374Z,4.50
2018-05-27T13:49:17.139Z,5.17
2018-05-27T13:51:44.823Z,5.40
2018-05-27T13:54:12.478Z,5.40
2018-05-27T13:56:39.945Z,4.60
2018-05-27T13:59:07.403Z,4.53
2018-05-27T14:01:34.906Z,4.70
2018-05-27T14:04:02.420Z,4.70
2018-05-27T14:06:29.889Z,5.13
2018-05-27T14:08:57.342Z,4.10
2018-05-27T14:11:24.816Z,6.00
2018-05-27T14:13:52.558Z,4.90
2018-05-27T14:16:20.011Z,5.50
2018-05-27T14:18:47.782Z,5.90
2018-05-27T14:21:16.750Z,6.30
2018-05-27T14:23:44.218Z,7.13
2018-05-27T14:26:11.679Z,6.10
2018-05-27T14:28:39.450Z,6.73
2018-05-27T14:31:07.142Z,8.00
2018-05-27T14:33:34.606Z,8.03
2018-05-27T14:36:02.844Z,7.37
2018-05-27T14:38:30.459Z,7.03
2018-05-27T14:40:57.971Z,6.60
2018-05-27T14:43:25.435Z,6.23
2018-05-27T14:45:53.198Z,5.40
2018-05-27T14:48:20.875Z,10.20
2018-05-27T14:50:48.414Z,9.10
2018-05-27T14:53:15.878Z,7.27
2018-05-27T14:55:43.640Z,7.07
2018-05-27T14:58:11.098Z,9.00
2018-05-27T15:00:39.254Z,11.27
2018-05-27T15:03:06.728Z,12.40
2018-05-27T15:05:34.188Z,9.30
2018-05-27T15:08:01.850Z,6.93
2018-05-27T15:10:29.310Z,6.80
2018-05-27T15:12:56.775Z,7.07
2018-05-27T15:15:24.538Z,7.13
2018-05-27T15:17:52.914Z,7.00
2018-05-27T15:20:20.371Z,6.10
2018-05-27T15:22:47.830Z,8.40
2018-05-27T15:25:15.350Z,7.30
2018-05-27T15:27:42.963Z,8.50
2018-05-27T15:30:10.434Z,7.73
2018-05-27T15:32:37.922Z,9.20
2018-05-27T15:35:05.402Z,7.97
2018-05-27T15:37:32.935Z,8.60
2018-05-27T15:40:00.414Z,12.07
2018-05-27T15:42:28.108Z,8.67
2018-05-27T15:44:55.874Z,7.97
2018-05-27T15:47:23.337Z,6.40
2018-05-27T15:49:50.810Z,7.27
2018-05-27T15:52:18.475Z,5.90
2018-05-27T15:54:45.932Z,6.10
2018-05-27T15:57:13.397Z,8.90
2018-05-27T15:59:41.861Z,7.43
2018-05-27T16:02:09.331Z,6.90
2018-05-27T16:04:36.785Z,7.83
2018-05-27T16:07:05.013Z,7.60
2018-05-27T16:09:32.535Z,7.13
2018-05-27T16:12:00.067Z,6.57
2018-05-27T16:14:27.534Z,7.37
2018-05-27T16:16:54.990Z,7.30
2018-05-27T16:19:22.470Z,10.33
2018-05-27T16:21:50.122Z,8.67
2018-05-27T16:24:17.574Z,7.77
2018-05-27T16:26:45.123Z,7.00
2018-05-27T16:29:12.582Z,9.37
2018-05-27T16:31:40.346Z,10.57
2018-05-27T16:34:08.107Z,9.13
2018-05-27T16:36:35.878Z,9.73
2018-05-27T16:39:03.335Z,9.30
2018-05-27T16:41:31.098Z,9.20
2018-05-27T16:43:58.638Z,10.53
2018-05-27T16:46:26.323Z,7.63
2018-05-27T16:48:53.783Z,9.30
2018-05-27T16:51:21.550Z,9.57
2018-05-27T16:53:49.310Z,8.90
2018-05-27T16:56:16.779Z,7.60
2018-05-27T16:58:44.262Z,7.30
2018-05-27T17:01:11.718Z,7.40
2018-05-27T17:03:39.605Z,7.07
2018-05-27T17:06:07.212Z,7.60
2018-05-27T17:08:34.674Z,9.67
2018-05-27T17:11:02.242Z,8.07
2018-05-27T17:13:29.892Z,9.37
2018-05-27T17:15:57.666Z,9.73
2018-05-27T17:18:25.287Z,13.93
2018-05-27T17:20:52.783Z,10.77
2018-05-27T17:23:20.293Z,10.50
2018-05-27T17:25:47.755Z,8.73
2018-05-27T17:28:15.236Z,10.17
2018-05-27T17:30:42.718Z,9.30
2018-05-27T17:33:10.491Z,10.10
2018-05-27T17:35:37.962Z,8.70
2018-05-27T17:38:05.860Z,8.97
2018-05-27T17:40:33.319Z,9.20
2018-05-27T17:43:00.786Z,8.70
2018-05-27T17:45:28.300Z,9.67
2018-05-27T17:48:07.513Z,10.03
2018-05-27T17:50:34.970Z,9.97
2018-05-27T17:53:02.438Z,9.87
2018-05-27T17:55:30.118Z,10.50
2018-05-27T17:57:57.606Z,11.00
2018-05-27T18:00:25.114Z,10.50
2018-05-27T18:02:52.805Z,8.80
2018-05-27T18:05:20.344Z,9.83
2018-05-27T18:07:47.864Z,8.40
2018-05-27T18:10:15.558Z,8.93
2018-05-27T18:12:43.018Z,9.33
2018-05-27T18:15:10.700Z,10.00
2018-05-27T18:17:38.167Z,10.87
2018-05-27T18:20:05.706Z,10.77
2018-05-27T18:22:33.375Z,9.43
2018-05-27T18:25:00.872Z,9.30
2018-05-27T18:27:28.390Z,12.10
2018-05-27T18:29:56.160Z,11.10
2018-05-27T18:32:23.630Z,9.67
2018-05-27T18:34:51.094Z,10.30
2018-05-27T18:37:18.555Z,9.90
2018-05-27T18:39:46.174Z,10.90
2018-05-27T18:42:13.649Z,8.60
2018-05-27T18:44:41.118Z,10.20
2018-05-27T18:47:08.580Z,11.23
2018-05-27T18:49:36.044Z,12.00
2018-05-27T18:52:03.510Z,12.13
2018-05-27T18:54:31.038Z,11.17
2018-05-27T18:56:58.802Z,9.83
2018-05-27T18:59:26.561Z,9.80
2018-05-27T19:01:55.558Z,9.30
2018-05-27T19:04:23.051Z,10.57
2018-05-27T19:06:50.498Z,10.00
2018-05-27T19:09:18.165Z,9.73
2018-05-27T19:11:45.698Z,9.90
2018-05-27T19:14:13.168Z,10.97
2018-05-27T19:16:40.630Z,9.63
2018-05-27T19:19:08.296Z,9.80
2018-05-27T19:21:35.757Z,9.60
2018-05-27T19:24:03.294Z,9.50
2018-05-27T19:26:32.270Z,10.17
2018-05-27T19:28:59.753Z,9.10
2018-05-27T19:31:27.523Z,9.80
2018-05-27T19:33:55.194Z,11.07
2018-05-27T19:36:22.690Z,10.83
2018-05-27T19:38:51.037Z,10.43
2018-05-27T19:41:18.495Z,9.93
2018-05-27T19:43:46.038Z,10.70
2018-05-27T19:46:13.803Z,22.27
2018-05-27T19:48:41.561Z,29.97
2018-05-27T19:51:09.242Z,13.93
2018-05-27T19:53:36.702Z,12.13
2018-05-27T19:56:04.242Z,9.30
2018-05-27T19:58:33.238Z,9.57
2018-05-27T20:01:01.057Z,10.03
2018-05-27T20:03:28.688Z,9.47
2018-05-27T20:05:56.221Z,10.93
2018-05-27T20:08:23.697Z,14.30
2018-05-27T20:10:51.371Z,17.07
2018-05-27T20:13:18.910Z,14.00
2018-05-27T20:15:47.878Z,11.67
2018-05-27T20:18:15.349Z,11.43
2018-05-27T20:20:42.817Z,12.20
2018-05-27T20:23:10.283Z,13.20
2018-05-27T20:25:39.249Z,14.90
2018-05-27T20:28:06.718Z,14.60
2018-05-27T20:30:34.503Z,12.17
2018-05-27T20:33:02.066Z,12.50
2018-05-27T20:35:29.560Z,12.23
2018-05-27T20:37:57.023Z,13.23
2018-05-27T20:40:24.947Z,12.00
2018-05-27T20:42:52.711Z,12.80
2018-05-27T20:45:21.686Z,14.10
2018-05-27T20:47:49.142Z,13.17
2018-05-27T20:50:16.622Z,13.73
2018-05-27T20:52:44.299Z,12.43
2018-05-27T20:55:11.762Z,13.47
2018-05-27T20:57:39.302Z,12.27
2018-05-27T21:00:06.772Z,12.70
2018-05-27T21:02:35.138Z,13.00
2018-05-27T21:05:02.811Z,14.70
2018-05-27T21:07:30.367Z,14.70
2018-05-27T21:09:58.050Z,14.73
2018-05-27T21:12:25.528Z,14.50
2018-05-27T21:14:53.043Z,16.93
2018-05-27T21:17:22.011Z,15.27
2018-05-27T21:19:49.482Z,20.80
2018-05-27T21:22:16.943Z,19.07
2018-05-27T21:24:44.715Z,18.50
2018-05-27T21:27:13.698Z,21.40
2018-05-27T21:29:42.211Z,20.70
2018-05-27T21:32:10.466Z,21.80
2018-05-27T21:34:39.459Z,21.37
2018-05-27T21:37:08.481Z,18.67
2018-05-27T21:39:35.919Z,17.70
2018-05-27T21:42:04.886Z,20.60
2018-05-27T21:44:32.347Z,19.47
2018-05-27T21:46:59.815Z,21.43
2018-05-27T21:49:27.289Z,21.20
2018-05-27T21:51:56.266Z,22.77
2018-05-27T21:54:23.731Z,22.50
2018-05-27T21:56:52.709Z,20.33
2018-05-27T21:59:20.501Z,23.50
2018-05-27T22:01:49.473Z,23.97
2018-05-27T22:04:16.953Z,19.90
2018-05-27T22:06:45.931Z,19.70
2018-05-27T22:09:13.395Z,18.97
2018-05-27T22:11:42.390Z,20.23
2018-05-27T22:14:11.387Z,20.17
2018-05-27T22:16:40.386Z,20.90
2018-05-27T22:19:09.367Z,22.17
2018-05-27T22:21:37.120Z,21.40
2018-05-27T22:24:05.354Z,22.33
2018-05-27T22:26:32.982Z,21.10
2018-05-27T22:29:00.677Z,20.90
2018-05-27T22:31:28.135Z,22.13
2018-05-27T22:33:55.604Z,19.70
2018-05-27T22:36:23.077Z,23.30
2018-05-27T22:38:50.540Z,22.90
2018-05-27T22:41:18.037Z,23.23
2018-05-27T22:43:46.339Z,22.20
2018-05-27T22:46:13.799Z,22.10
2018-05-27T22:48:41.334Z,22.63
2018-05-27T22:51:09.100Z,24.10
2018-05-27T22:53:38.075Z,22.80
2018-05-27T22:56:05.547Z,22.90
2018-05-27T22:58:34.547Z,24.87
2018-05-27T23:01:03.541Z,23.33
2018-05-27T23:03:31.299Z,22.27
2018-05-27T23:06:00.297Z,23.17
2018-05-27T23:08:29.271Z,24.17
2018-05-27T23:10:56.743Z,26.90
2018-05-27T23:13:24.202Z,25.70
2018-05-27T23:15:53.178Z,27.33
2018-05-27T23:18:20.657Z,24.70
2018-05-27T23:20:48.120Z,25.00
2018-05-27T23:23:16.354Z,27.60
2018-05-27T23:25:43.950Z,26.27
2018-05-27T23:28:12.925Z,25.60
2018-05-27T23:30:40.405Z,24.27
2018-05-27T23:33:09.401Z,24.93
2018-05-27T23:35:38.377Z,22.00
2018-05-27T23:38:06.158Z,25.60
2018-05-27T23:40:35.130Z,26.43
2018-05-27T23:43:02.616Z,25.00
2018-05-27T23:45:31.616Z,26.57
2018-05-27T23:47:59.237Z,26.03
2018-05-27T23:50:26.747Z,26.23
2018-05-27T23:52:54.207Z,26.30
2018-05-27T23:55:21.688Z,26.67
2018-05-27T23:57:49.146Z,26.63
